Terminal Aerodrome Forecast
Issued by NWS Mobile, AL

Home | Current Version | Previous Version | Text Only | Print | Product List | Glossary On
Versions: 1 2 3 4 5 6 7 8 9 10 11 12 13 14 15 16 17 18 19 20 21 22 23 24 25 26 27 28 29 30 31 32
000
FTUS44 KMOB 301125
TAFMOB
TAF
KMOB 301125Z 3012/3112 31005KT P6SM FEW050 SCT080 SCT200
     FM301700 01006KT P6SM VCTS BKN040CB OVC250
      TEMPO 3018/3022 VRB15G25KT 4SM TSRA BKN040CB
     FM310000 01004KT P6SM BKN250=

USA.gov is the U.S. government's official web portal to all federal, state and local government web resources and services.